Time;durP1;ratioP1;P1;durP2;ratioP2;P2;SDS_P1;SDS_P2;PMS_P1;PMS_P2;Temp;Humidity;BMP_temperature;BMP_pressure;BME280_temperature;BME280_humidity;BME280_pressure;Samples;Min_cycle;Max_cycle;Signal;HPM_P1;HPM_P2
2021/12/01 00:02:16;;;;;;;0.40;0.40;;;22.30;46.70;;;;;;5054953;28;20193;-67
2021/12/01 00:04:42;;;;;;;0.40;0.40;;;22.30;47.40;;;;;;5054475;28;20285;-67
2021/12/01 00:07:09;;;;;;;0.55;0.40;;;22.30;46.70;;;;;;5037863;28;20619;-67
2021/12/01 00:09:34;;;;;;;0.50;0.50;;;22.30;46.80;;;;;;5054218;28;20189;-67
2021/12/01 00:12:00;;;;;;;0.40;0.40;;;22.30;46.70;;;;;;5038073;28;20222;-67
2021/12/01 00:14:26;;;;;;;0.50;0.50;;;22.30;46.70;;;;;;5054540;28;20182;-67
2021/12/01 00:16:52;;;;;;;0.43;0.43;;;22.30;46.80;;;;;;5037857;28;20304;-67
2021/12/01 00:19:18;;;;;;;0.65;0.50;;;22.30;46.80;;;;;;5054330;28;20189;-68
2021/12/01 00:21:44;;;;;;;0.40;0.40;;;22.30;46.70;;;;;;5053734;28;20193;-67
2021/12/01 00:24:09;;;;;;;0.90;0.40;;;22.30;46.70;;;;;;5054180;28;20181;-67
2021/12/01 00:26:35;;;;;;;0.50;0.50;;;22.30;46.70;;;;;;5054404;28;20236;-67
2021/12/01 00:29:01;;;;;;;0.30;0.30;;;22.30;46.70;;;;;;5037610;28;20270;-67
2021/12/01 00:31:27;;;;;;;0.50;0.40;;;22.20;46.60;;;;;;5037926;28;20213;-67
2021/12/01 00:33:53;;;;;;;0.68;0.50;;;22.20;46.70;;;;;;5054536;28;20552;-67
2021/12/01 00:36:19;;;;;;;0.40;0.40;;;22.30;46.70;;;;;;5037512;28;20778;-67
2021/12/01 00:38:45;;;;;;;0.50;0.50;;;22.30;46.70;;;;;;5037389;28;20276;-67
2021/12/01 00:41:12;;;;;;;0.40;0.40;;;22.30;46.60;;;;;;5037616;28;20197;-67
2021/12/01 00:43:39;;;;;;;0.50;0.50;;;22.20;46.60;;;;;;5037563;28;20234;-67
2021/12/01 00:46:14;;;;;;;0.75;0.50;;;22.30;46.60;;;;;;5071940;28;20237;-67
2021/12/01 00:48:41;;;;;;;0.82;0.60;;;22.20;46.60;;;;;;5053844;28;20203;-67
2021/12/01 00:51:08;;;;;;;0.38;0.38;;;22.20;47.30;;;;;;5071943;28;20181;-67
2021/12/01 00:53:33;;;;;;;0.40;0.40;;;22.30;46.70;;;;;;5054280;28;20289;-67
2021/12/01 00:55:59;;;;;;;0.40;0.40;;;22.30;46.70;;;;;;5053964;28;20284;-67
2021/12/01 00:58:25;;;;;;;0.30;0.30;;;22.30;46.80;;;;;;5037485;28;20185;-67
2021/12/01 01:00:51;;;;;;;0.30;0.30;;;22.30;46.70;;;;;;5054296;28;20555;-67
2021/12/01 01:03:18;;;;;;;0.47;0.47;;;22.30;46.80;;;;;;5071921;28;20181;-67
2021/12/01 01:05:44;;;;;;;0.47;0.47;;;22.30;46.80;;;;;;5071774;28;20202;-67
2021/12/01 01:08:10;;;;;;;0.40;0.40;;;22.30;46.70;;;;;;5037410;28;20182;-67
2021/12/01 01:18:50;;;;;;;0.40;0.40;;;22.30;46.60;;;;;;5053779;28;20182;-67
2021/12/01 01:21:16;;;;;;;0.57;0.40;;;22.30;46.80;;;;;;5037371;28;20217;-67
2021/12/01 01:23:43;;;;;;;0.30;0.30;;;22.30;46.70;;;;;;5037084;28;20203;-68
2021/12/01 01:26:13;;;;;;;1.30;0.43;;;22.30;46.70;;;;;;5053863;28;20201;-67
2021/12/01 01:28:40;;;;;;;0.52;0.40;;;22.30;46.70;;;;;;5037023;28;20191;-67
2021/12/01 01:31:06;;;;;;;0.40;0.40;;;22.30;46.70;;;;;;5037398;28;20197;-67
2021/12/01 01:33:32;;;;;;;0.40;0.40;;;22.30;46.70;;;;;;5055092;28;20688;-67
2021/12/01 01:35:58;;;;;;;0.30;0.30;;;22.30;46.80;;;;;;5040859;28;20251;-67
2021/12/01 01:38:24;;;;;;;0.40;0.40;;;22.30;46.70;;;;;;5057170;28;20177;-67
2021/12/01 01:40:50;;;;;;;0.40;0.40;;;22.30;46.70;;;;;;5040655;28;20204;-67
2021/12/01 01:43:16;;;;;;;0.40;0.40;;;22.30;46.80;;;;;;5057143;28;20185;-67
2021/12/01 01:45:42;;;;;;;0.35;0.35;;;22.30;46.70;;;;;;5057205;28;20214;-67
2021/12/01 01:48:13;;;;;;;0.38;0.38;;;22.30;46.70;;;;;;5057380;28;20190;-67
2021/12/01 01:50:43;;;;;;;0.38;0.38;;;22.20;46.60;;;;;;5040633;28;20186;-67
2021/12/01 01:53:17;;;;;;;0.38;0.38;;;22.30;46.70;;;;;;5074700;28;20226;-67
2021/12/01 01:55:51;;;;;;;0.40;0.40;;;22.30;46.60;;;;;;5056922;28;20212;-67
2021/12/01 01:58:18;;;;;;;0.30;0.30;;;22.30;46.70;;;;;;5040438;28;20196;-67
2021/12/01 02:00:51;;;;;;;0.40;0.40;;;22.30;46.70;;;;;;5057278;28;20209;-67
2021/12/01 02:03:21;;;;;;;0.35;0.30;;;22.30;46.60;;;;;;5040264;28;20182;-67
2021/12/01 02:05:47;;;;;;;0.40;0.40;;;22.20;46.50;;;;;;5056743;28;20304;-67
2021/12/01 02:08:20;;;;;;;0.50;0.50;;;22.20;46.60;;;;;;5056608;28;20188;-67
2021/12/01 02:10:49;;;;;;;0.40;0.40;;;22.20;46.70;;;;;;5056976;28;20178;-67
2021/12/01 02:13:18;;;;;;;0.40;0.40;;;22.20;46.60;;;;;;5039745;28;20218;-67
2021/12/01 02:15:48;;;;;;;0.43;0.43;;;22.30;46.70;;;;;;5056342;28;20221;-67
2021/12/01 02:18:14;;;;;;;0.47;0.40;;;22.30;46.70;;;;;;5056423;28;20247;-67
2021/12/01 02:20:57;;;;;;;0.40;0.40;;;22.30;46.70;;;;;;5040068;28;20173;-67
2021/12/01 02:23:23;;;;;;;0.40;0.40;;;22.30;46.80;;;;;;5056663;28;20178;-67
2021/12/01 02:25:49;;;;;;;0.30;0.30;;;22.30;46.70;;;;;;5040107;28;20209;-67
2021/12/01 02:28:15;;;;;;;0.30;0.30;;;22.30;47.20;;;;;;5056227;28;20193;-67
2021/12/01 02:30:41;;;;;;;0.35;0.30;;;22.30;46.70;;;;;;5056452;28;20188;-67
2021/12/01 02:33:07;;;;;;;0.52;0.30;;;22.20;46.60;;;;;;5039480;28;20213;-67
2021/12/01 02:35:33;;;;;;;0.30;0.30;;;22.30;46.60;;;;;;5056396;28;20202;-67
2021/12/01 02:37:59;;;;;;;0.30;0.30;;;22.20;46.50;;;;;;5073952;28;20166;-67
2021/12/01 02:40:24;;;;;;;0.30;0.30;;;22.30;46.70;;;;;;5039809;28;20299;-67
2021/12/01 02:42:50;;;;;;;0.30;0.30;;;22.20;46.60;;;;;;5056097;28;20260;-67
2021/12/01 02:45:16;;;;;;;0.47;0.47;;;22.20;46.60;;;;;;5038261;28;20212;-67
2021/12/01 02:47:42;;;;;;;0.50;0.50;;;22.30;46.70;;;;;;5039253;28;20185;-67
2021/12/01 02:50:08;;;;;;;0.40;0.40;;;22.30;46.70;;;;;;5056295;28;20193;-67
2021/12/01 02:52:35;;;;;;;0.45;0.40;;;22.20;46.60;;;;;;5055917;28;20221;-67
2021/12/01 02:55:11;;;;;;;0.52;0.40;;;22.20;46.60;;;;;;5039356;28;20170;-67
2021/12/01 02:57:50;;;;;;;0.50;0.30;;;22.30;46.70;;;;;;5055712;28;20181;-67
2021/12/01 03:00:20;;;;;;;0.30;0.30;;;22.30;46.70;;;;;;5055904;28;20315;-69
2021/12/01 03:02:48;;;;;;;0.30;0.30;;;22.30;46.70;;;;;;5055829;28;20185;-68
2021/12/01 03:05:17;;;;;;;0.30;0.30;;;22.30;46.70;;;;;;5039116;28;20251;-67
2021/12/01 03:07:45;;;;;;;0.30;0.30;;;22.30;46.70;;;;;;5038892;28;20185;-67
2021/12/01 03:10:12;;;;;;;0.30;0.30;;;22.20;46.60;;;;;;5038437;28;20259;-67
2021/12/01 03:12:41;;;;;;;0.43;0.40;;;22.20;46.60;;;;;;5055538;28;20589;-66
2021/12/01 03:15:16;;;;;;;0.32;0.32;;;22.20;46.60;;;;;;5038612;28;20205;-68
2021/12/01 03:17:43;;;;;;;0.30;0.30;;;22.30;46.60;;;;;;5055362;28;20187;-67
2021/12/01 03:20:11;;;;;;;0.32;0.32;;;22.20;46.60;;;;;;5055204;28;20181;-67
2021/12/01 03:22:37;;;;;;;0.40;0.40;;;22.20;46.60;;;;;;5038625;28;20192;-68
2021/12/01 03:25:10;;;;;;;0.40;0.40;;;22.20;46.60;;;;;;5058117;28;20209;-67
2021/12/01 03:27:36;;;;;;;0.38;0.38;;;22.20;46.60;;;;;;5055326;28;20202;-67
2021/12/01 03:30:11;;;;;;;0.30;0.30;;;22.20;46.60;;;;;;5038581;28;20661;-67
2021/12/01 03:32:39;;;;;;;0.30;0.30;;;22.20;46.60;;;;;;5056857;28;20292;-67
2021/12/01 03:35:13;;;;;;;0.40;0.40;;;22.20;46.60;;;;;;5068527;28;20190;-68
2021/12/01 03:37:42;;;;;;;0.40;0.40;;;22.20;46.60;;;;;;5038243;28;20206;-67
2021/12/01 03:40:10;;;;;;;0.32;0.32;;;22.20;46.60;;;;;;5055274;28;20218;-67
2021/12/01 03:42:36;;;;;;;0.30;0.30;;;22.20;46.60;;;;;;5038391;28;20181;-67
2021/12/01 03:45:05;;;;;;;0.50;0.50;;;22.20;47.00;;;;;;5055019;28;20173;-68
2021/12/01 03:47:31;;;;;;;0.30;0.30;;;22.20;46.60;;;;;;5071189;28;20181;-67
2021/12/01 03:49:57;;;;;;;0.30;0.30;;;22.20;46.60;;;;;;5071558;28;20239;-68
2021/12/01 03:52:24;;;;;;;0.40;0.40;;;22.20;46.60;;;;;;5054916;28;20255;-68
2021/12/01 03:54:52;;;;;;;0.40;0.40;;;22.20;46.60;;;;;;5054808;28;20182;-67
2021/12/01 03:57:19;;;;;;;0.30;0.30;;;22.20;46.60;;;;;;5054856;28;20174;-68
2021/12/01 03:59:45;;;;;;;0.38;0.38;;;22.20;46.60;;;;;;5071562;28;20190;-68
2021/12/01 04:02:12;;;;;;;0.30;0.30;;;22.20;46.50;;;;;;5054951;28;20185;-67
2021/12/01 04:04:38;;;;;;;0.73;0.40;;;22.20;46.60;;;;;;5072487;28;20244;-67
2021/12/01 04:07:04;;;;;;;0.20;0.20;;;22.20;46.60;;;;;;5072392;28;20205;-68
2021/12/01 04:09:31;;;;;;;0.30;0.30;;;22.20;46.60;;;;;;5072428;28;20196;-68
2021/12/01 04:11:57;;;;;;;0.30;0.30;;;22.20;46.60;;;;;;5037776;28;20244;-68
2021/12/01 04:14:24;;;;;;;0.30;0.30;;;22.30;46.70;;;;;;5072481;28;20169;-67
2021/12/01 04:16:50;;;;;;;0.30;0.30;;;22.20;46.60;;;;;;5094629;22;20788;-67
2021/12/01 04:19:17;;;;;;;0.30;0.30;;;22.30;46.70;;;;;;5086626;28;20184;-67
2021/12/01 04:21:43;;;;;;;0.38;0.38;;;22.20;46.60;;;;;;5070120;28;20218;-67
2021/12/01 04:24:09;;;;;;;0.32;0.32;;;22.30;46.70;;;;;;5070908;28;20192;-67
2021/12/01 04:26:36;;;;;;;0.30;0.30;;;22.30;46.70;;;;;;5070639;28;20206;-67
2021/12/01 04:29:05;;;;;;;0.40;0.40;;;22.20;46.60;;;;;;5070586;28;20661;-67
2021/12/01 04:31:35;;;;;;;0.30;0.30;;;22.30;46.70;;;;;;5071849;28;20178;-67
2021/12/01 04:34:02;;;;;;;0.30;0.30;;;22.20;46.60;;;;;;5070501;28;20201;-67
2021/12/01 04:36:32;;;;;;;0.55;0.43;;;22.30;46.70;;;;;;5070561;28;20275;-67
2021/12/01 04:38:58;;;;;;;0.32;0.30;;;22.20;46.60;;;;;;5070645;28;20177;-65
2021/12/01 04:41:25;;;;;;;0.30;0.30;;;22.30;46.60;;;;;;5070924;28;20192;-67
2021/12/01 04:43:53;;;;;;;0.30;0.30;;;22.20;46.60;;;;;;5072174;28;20338;-67
2021/12/01 04:46:20;;;;;;;0.40;0.40;;;22.20;46.60;;;;;;5072080;28;20205;-66
2021/12/01 04:48:48;;;;;;;0.30;0.30;;;22.20;46.60;;;;;;5071822;28;20178;-66
2021/12/01 04:51:17;;;;;;;0.25;0.25;;;22.30;46.70;;;;;;5087982;28;20173;-67
2021/12/01 04:53:44;;;;;;;0.20;0.20;;;22.30;46.70;;;;;;5087850;28;20635;-67
2021/12/01 04:56:10;;;;;;;0.22;0.22;;;22.30;46.70;;;;;;5014743;28;20203;-67
2021/12/01 04:58:37;;;;;;;0.40;0.40;;;22.20;46.60;;;;;;5030700;28;20183;-66
2021/12/01 05:01:03;;;;;;;0.40;0.40;;;22.30;46.70;;;;;;5014786;28;20282;-66
2021/12/01 05:03:32;;;;;;;0.20;0.20;;;22.20;46.60;;;;;;5032023;28;20183;-66
2021/12/01 05:05:58;;;;;;;0.43;0.30;;;22.30;46.70;;;;;;5031202;28;20249;-67
2021/12/01 05:08:23;;;;;;;0.45;0.45;;;22.30;46.80;;;;;;5015236;28;20230;-66
2021/12/01 05:10:50;;;;;;;0.40;0.40;;;22.30;46.70;;;;;;5035009;28;20210;-66
2021/12/01 05:13:17;;;;;;;0.30;0.30;;;22.30;46.70;;;;;;5018015;28;20282;-67
2021/12/01 05:15:42;;;;;;;0.40;0.40;;;22.30;46.70;;;;;;5018149;28;20207;-66
2021/12/01 05:18:08;;;;;;;0.30;0.30;;;22.30;46.70;;;;;;5017855;28;20213;-67
2021/12/01 05:20:36;;;;;;;0.35;0.32;;;22.30;46.70;;;;;;5034830;28;20175;-67
2021/12/01 05:23:02;;;;;;;0.40;0.40;;;22.30;46.70;;;;;;5017934;28;20241;-67
2021/12/01 05:25:28;;;;;;;0.30;0.30;;;22.30;46.70;;;;;;5051415;28;20218;-65
2021/12/01 05:27:54;;;;;;;0.30;0.30;;;22.30;46.70;;;;;;5034229;28;20187;-67
2021/12/01 05:30:20;;;;;;;0.30;0.30;;;22.30;46.70;;;;;;5034661;28;20179;-67
2021/12/01 05:32:47;;;;;;;0.30;0.30;;;22.30;46.70;;;;;;5034203;28;20210;-67
2021/12/01 05:35:14;;;;;;;0.40;0.40;;;22.30;46.70;;;;;;5034266;28;20186;-66
2021/12/01 05:37:40;;;;;;;0.30;0.30;;;22.30;46.70;;;;;;5050613;28;20225;-67
2021/12/01 05:40:06;;;;;;;0.50;0.50;;;22.30;46.70;;;;;;5017770;28;20665;-67
2021/12/01 05:42:32;;;;;;;0.30;0.30;;;22.30;46.70;;;;;;5034167;28;20659;-66
2021/12/01 05:44:58;;;;;;;0.32;0.32;;;22.30;46.70;;;;;;5033969;28;20190;-65
2021/12/01 05:47:24;;;;;;;0.43;0.43;;;22.30;46.80;;;;;;5034967;28;20238;-66
2021/12/01 05:49:50;;;;;;;0.40;0.40;;;22.20;46.60;;;;;;5038535;28;20194;-67
2021/12/01 05:52:17;;;;;;;0.50;0.50;;;22.30;46.80;;;;;;5051420;28;20259;-67
2021/12/01 05:54:44;;;;;;;0.40;0.40;;;22.30;46.80;;;;;;5034116;28;20186;-66
2021/12/01 05:57:10;;;;;;;0.40;0.40;;;22.30;46.80;;;;;;5034151;28;20253;-67
2021/12/01 05:59:36;;;;;;;0.40;0.40;;;22.30;46.80;;;;;;5034859;28;20254;-67
2021/12/01 06:02:02;;;;;;;0.50;0.50;;;22.30;46.80;;;;;;5033815;28;20187;-67
2021/12/01 06:04:28;;;;;;;0.40;0.40;;;22.30;46.90;;;;;;5033533;28;20245;-67
2021/12/01 06:06:54;;;;;;;0.40;0.40;;;22.30;46.90;;;;;;5033235;28;20211;-67
2021/12/01 06:09:20;;;;;;;0.40;0.40;;;22.20;46.80;;;;;;5032886;28;20192;-67
2021/12/01 06:11:47;;;;;;;0.50;0.50;;;22.30;46.90;;;;;;5032287;28;20230;-67
2021/12/01 06:14:16;;;;;;;0.40;0.40;;;22.20;46.80;;;;;;5042443;28;20210;-67
2021/12/01 06:16:43;;;;;;;0.35;0.35;;;22.30;46.90;;;;;;5016368;28;20309;-67
2021/12/01 06:19:10;;;;;;;0.40;0.40;;;22.30;46.90;;;;;;5045047;28;20211;-67
2021/12/01 06:21:36;;;;;;;0.32;0.32;;;22.30;46.90;;;;;;5066265;28;20175;-67
2021/12/01 06:24:02;;;;;;;0.40;0.40;;;22.30;46.80;;;;;;5032973;28;20206;-67
2021/12/01 06:26:27;;;;;;;0.30;0.30;;;22.30;46.70;;;;;;5066091;28;20192;-67
2021/12/01 06:28:53;;;;;;;0.38;0.38;;;22.20;46.70;;;;;;5032447;28;20191;-67
2021/12/01 06:31:19;;;;;;;0.50;0.50;;;22.30;46.80;;;;;;5032862;28;20232;-67
2021/12/01 06:33:45;;;;;;;0.47;0.47;;;22.30;46.80;;;;;;5034001;28;20238;-67
2021/12/01 06:36:11;;;;;;;0.50;0.50;;;22.20;46.70;;;;;;5032445;28;20199;-67
2021/12/01 06:38:39;;;;;;;0.40;0.40;;;22.20;46.60;;;;;;5032315;28;20277;-67
2021/12/01 06:41:06;;;;;;;0.40;0.40;;;22.30;46.70;;;;;;5065912;28;20179;-67
2021/12/01 06:43:32;;;;;;;0.38;0.38;;;22.20;46.80;;;;;;5033609;28;20179;-67
2021/12/01 06:45:58;;;;;;;0.50;0.50;;;22.20;46.80;;;;;;5065784;28;20202;-67
2021/12/01 06:48:24;;;;;;;0.40;0.40;;;22.20;46.80;;;;;;5032265;28;20191;-67
2021/12/01 06:50:50;;;;;;;0.47;0.47;;;22.30;46.90;;;;;;5065685;28;20270;-67
2021/12/01 06:53:17;;;;;;;0.50;0.50;;;22.30;46.90;;;;;;5032612;28;20203;-67
2021/12/01 06:55:43;;;;;;;0.43;0.43;;;22.20;46.80;;;;;;5051413;28;20260;-67
2021/12/01 06:58:09;;;;;;;0.50;0.50;;;22.30;46.90;;;;;;5051247;28;20287;-67
2021/12/01 07:00:36;;;;;;;0.50;0.50;;;22.30;46.90;;;;;;5052058;28;20179;-67
2021/12/01 07:03:02;;;;;;;0.50;0.50;;;22.30;46.90;;;;;;5068723;28;20190;-67
2021/12/01 07:05:28;;;;;;;0.57;0.40;;;22.20;46.80;;;;;;5048428;28;20233;-67
2021/12/01 07:07:54;;;;;;;0.50;0.50;;;22.20;46.90;;;;;;5048375;28;20222;-68
2021/12/01 07:10:20;;;;;;;0.40;0.40;;;22.20;46.90;;;;;;5048953;28;20235;-68
2021/12/01 07:12:46;;;;;;;0.50;0.50;;;22.20;46.80;;;;;;5033169;28;20211;-67
2021/12/01 07:15:13;;;;;;;0.40;0.40;;;22.30;46.90;;;;;;5032136;28;20183;-67
2021/12/01 07:17:41;;;;;;;0.55;0.47;;;22.30;46.90;;;;;;5020577;28;20349;-68
2021/12/01 07:20:08;;;;;;;1.13;0.50;;;22.30;46.80;;;;;;5057429;28;20197;-68
2021/12/01 07:22:33;;;;;;;0.57;0.57;;;22.20;46.70;;;;;;5047623;28;20178;-68
2021/12/01 07:24:59;;;;;;;0.30;0.30;;;22.30;46.80;;;;;;5063787;28;20720;-68
2021/12/01 07:27:25;;;;;;;0.40;0.40;;;22.20;46.60;;;;;;5063061;28;20211;-68
2021/12/01 07:29:51;;;;;;;0.40;0.40;;;22.30;46.70;;;;;;5075168;28;20185;-68
2021/12/01 07:32:17;;;;;;;0.40;0.40;;;22.30;46.70;;;;;;5070291;28;20224;-68
2021/12/01 07:34:43;;;;;;;0.40;0.40;;;22.20;46.60;;;;;;5066703;28;20223;-67
2021/12/01 07:37:12;;;;;;;0.95;0.40;;;22.30;46.90;;;;;;5053994;28;20201;-67
2021/12/01 07:39:37;;;;;;;0.30;0.30;;;22.20;46.70;;;;;;5044041;28;20178;-67
2021/12/01 07:42:05;;;;;;;0.40;0.40;;;22.30;46.80;;;;;;5069912;28;20222;-67
2021/12/01 07:44:33;;;;;;;0.55;0.30;;;22.20;46.80;;;;;;5060666;28;20327;-68
2021/12/01 07:46:59;;;;;;;1.20;0.50;;;22.30;46.90;;;;;;5035002;28;20214;-68
2021/12/01 07:49:25;;;;;;;0.50;0.50;;;22.30;46.80;;;;;;5051388;28;20191;-65
2021/12/01 07:51:51;;;;;;;0.40;0.40;;;22.20;46.80;;;;;;5051531;28;20218;-67
2021/12/01 07:54:17;;;;;;;0.80;0.55;;;22.30;46.90;;;;;;5051635;28;20178;-67
2021/12/01 07:56:43;;;;;;;0.52;0.50;;;22.30;46.90;;;;;;5051382;28;20203;-67
2021/12/01 07:59:11;;;;;;;0.40;0.40;;;22.30;46.90;;;;;;5067918;28;20193;-67
2021/12/01 08:01:37;;;;;;;0.50;0.50;;;22.30;46.90;;;;;;5054069;28;20204;-67
2021/12/01 08:04:03;;;;;;;0.40;0.40;;;22.30;46.90;;;;;;5054687;28;20247;-68
2021/12/01 08:06:32;;;;;;;0.43;0.43;;;22.30;46.90;;;;;;5072435;28;20209;-67
2021/12/01 08:09:00;;;;;;;1.35;0.60;;;22.30;46.90;;;;;;5067794;28;20181;-67
2021/12/01 08:11:27;;;;;;;0.45;0.45;;;22.30;46.90;;;;;;5065025;28;20208;-68
2021/12/01 08:13:53;;;;;;;0.50;0.50;;;22.30;46.80;;;;;;5071470;28;20251;-67
2021/12/01 08:16:18;;;;;;;0.50;0.50;;;22.30;46.90;;;;;;5037489;28;20225;-67
2021/12/01 08:18:44;;;;;;;0.40;0.40;;;22.30;46.90;;;;;;5054189;28;20189;-67
2021/12/01 08:21:10;;;;;;;0.63;0.40;;;22.30;46.90;;;;;;5054742;28;20276;-68
2021/12/01 08:23:36;;;;;;;0.50;0.50;;;22.30;46.80;;;;;;5071346;28;20177;-67
2021/12/01 08:26:02;;;;;;;0.63;0.40;;;22.30;46.80;;;;;;5074397;28;20205;-67
2021/12/01 08:28:27;;;;;;;0.50;0.40;;;22.30;46.80;;;;;;5054215;28;20247;-67
2021/12/01 08:30:53;;;;;;;0.75;0.52;;;22.30;46.80;;;;;;5068604;28;20183;-68
2021/12/01 08:33:19;;;;;;;0.40;0.30;;;22.30;47.00;;;;;;5017823;28;20221;-67
2021/12/01 08:35:45;;;;;;;0.80;0.32;;;22.30;47.00;;;;;;5017771;28;20213;-67
2021/12/01 08:38:10;;;;;;;0.50;0.50;;;22.30;47.00;;;;;;5017786;28;20274;-67
2021/12/01 08:40:36;;;;;;;0.40;0.40;;;22.30;47.00;;;;;;5033309;28;20266;-67
2021/12/01 08:43:03;;;;;;;0.40;0.40;;;22.30;46.90;;;;;;5074718;28;20187;-66
2021/12/01 08:45:29;;;;;;;0.40;0.40;;;22.30;47.00;;;;;;5086271;28;20230;-67
2021/12/01 08:47:55;;;;;;;0.38;0.38;;;22.30;46.90;;;;;;5038182;28;20174;-67
2021/12/01 08:50:21;;;;;;;1.33;0.50;;;22.30;47.00;;;;;;5022182;28;20669;-67
2021/12/01 08:52:48;;;;;;;0.50;0.50;;;22.30;47.00;;;;;;5038278;28;20214;-67
2021/12/01 08:55:14;;;;;;;0.43;0.43;;;22.30;47.00;;;;;;5055377;28;20279;-67
2021/12/01 08:57:41;;;;;;;0.40;0.35;;;22.40;47.00;;;;;;5078117;28;20189;-67
2021/12/01 09:00:09;;;;;;;0.43;0.43;;;22.30;47.00;;;;;;5078537;28;20263;-67
2021/12/01 09:02:35;;;;;;;0.40;0.40;;;22.30;47.00;;;;;;5078274;28;20184;-67
2021/12/01 09:05:01;;;;;;;0.40;0.40;;;22.30;47.00;;;;;;5093041;28;20192;-67
2021/12/01 09:07:26;;;;;;;0.40;0.40;;;22.30;46.90;;;;;;5040472;28;20206;-65
2021/12/01 09:09:52;;;;;;;0.65;0.40;;;22.30;47.00;;;;;;5058052;28;20190;-67
2021/12/01 09:12:18;;;;;;;0.40;0.40;;;22.30;47.00;;;;;;5041396;28;20217;-67
2021/12/01 09:14:44;;;;;;;0.30;0.30;;;22.40;47.00;;;;;;5058080;28;20185;-67
2021/12/01 09:17:12;;;;;;;0.35;0.35;;;22.40;47.00;;;;;;5075663;28;20315;-67
2021/12/01 09:19:40;;;;;;;0.32;0.32;;;22.40;47.00;;;;;;5074435;28;20241;-67
2021/12/01 09:22:06;;;;;;;0.50;0.50;;;22.30;46.90;;;;;;5057411;28;20239;-67
2021/12/01 09:24:31;;;;;;;0.40;0.40;;;22.40;47.00;;;;;;5091763;28;20186;-67
2021/12/01 09:26:57;;;;;;;0.40;0.40;;;22.40;47.00;;;;;;5075475;28;20209;-67
2021/12/01 09:29:23;;;;;;;0.40;0.40;;;22.40;46.90;;;;;;5055364;28;20273;-67
2021/12/01 09:31:49;;;;;;;1.00;0.50;;;22.40;47.00;;;;;;5054005;28;20221;-67
2021/12/01 09:34:15;;;;;;;0.75;0.47;;;22.30;46.90;;;;;;5057838;28;20217;-67
2021/12/01 09:36:41;;;;;;;0.30;0.30;;;22.40;47.00;;;;;;5057368;28;20210;-67
2021/12/01 09:39:07;;;;;;;0.55;0.55;;;22.30;46.90;;;;;;5056965;28;20235;-67
2021/12/01 09:41:33;;;;;;;0.45;0.45;;;22.40;47.00;;;;;;5054244;28;20200;-67
2021/12/01 09:43:59;;;;;;;0.45;0.43;;;22.30;47.00;;;;;;5055297;28;20178;-67
2021/12/01 09:46:30;;;;;;;0.40;0.40;;;22.30;47.00;;;;;;5061407;28;20205;-67
2021/12/01 09:48:55;;;;;;;0.50;0.43;;;22.40;47.00;;;;;;5073742;28;20178;-67
2021/12/01 09:51:21;;;;;;;0.70;0.50;;;22.40;47.00;;;;;;5057530;28;20260;-67
2021/12/01 09:53:48;;;;;;;0.40;0.40;;;22.40;47.00;;;;;;5074478;28;20216;-67
2021/12/01 09:56:16;;;;;;;0.40;0.40;;;22.40;47.10;;;;;;5062086;28;20300;-67
2021/12/01 09:58:45;;;;;;;0.63;0.43;;;22.40;47.00;;;;;;5073713;28;20263;-67
2021/12/01 10:01:16;;;;;;;0.55;0.55;;;22.40;47.10;;;;;;5057009;28;20185;-67
2021/12/01 10:03:44;;;;;;;0.50;0.50;;;22.40;47.00;;;;;;5057287;28;20278;-67
2021/12/01 10:06:21;;;;;;;0.50;0.50;;;22.40;47.00;;;;;;5056767;28;20216;-67
2021/12/01 10:09:02;;;;;;;0.60;0.50;;;22.40;47.00;;;;;;5056623;28;20216;-68
2021/12/01 10:11:35;;;;;;;0.57;0.57;;;22.40;46.90;;;;;;5073416;28;20193;-67
2021/12/01 10:14:20;;;;;;;0.75;0.40;;;22.40;47.00;;;;;;5046741;28;20193;-67
2021/12/01 10:16:52;;;;;;;0.40;0.40;;;22.40;47.00;;;;;;5100752;22;20719;-67
2021/12/01 10:19:18;;;;;;;0.50;0.50;;;22.40;47.00;;;;;;5091408;28;20660;-67
2021/12/01 10:21:50;;;;;;;0.82;0.47;;;22.40;47.00;;;;;;5092282;28;20175;-66
2021/12/01 10:24:23;;;;;;;0.60;0.50;;;22.40;47.00;;;;;;5096902;28;20180;-69
2021/12/01 10:27:00;;;;;;;0.88;0.47;;;22.40;47.00;;;;;;5093378;28;20678;-69
2021/12/01 10:29:30;;;;;;;0.50;0.50;;;22.40;47.00;;;;;;5077797;28;20180;-66
2021/12/01 10:32:13;;;;;;;1.70;0.60;;;22.40;47.00;;;;;;5093732;28;20343;-66
2021/12/01 10:34:52;;;;;;;0.50;0.50;;;22.50;47.10;;;;;;5094540;28;20188;-66
2021/12/01 10:37:23;;;;;;;0.43;0.40;;;22.50;47.00;;;;;;5102037;28;20204;-66
2021/12/01 10:40:24;;;;;;;0.50;0.50;;;22.50;47.10;;;;;;5096532;28;20172;-67
2021/12/01 10:42:55;;;;;;;0.50;0.50;;;22.50;47.10;;;;;;5075382;28;20228;-66
2021/12/01 10:45:36;;;;;;;0.50;0.50;;;22.40;47.00;;;;;;5114497;28;20211;-66
2021/12/01 10:48:07;;;;;;;0.98;0.40;;;22.40;47.60;;;;;;5096607;28;20219;-66
2021/12/01 10:50:39;;;;;;;0.50;0.50;;;22.40;47.00;;;;;;5114866;28;20195;-66
2021/12/01 10:53:11;;;;;;;0.80;0.80;;;22.40;47.00;;;;;;5096264;28;20239;-67
2021/12/01 10:55:58;;;;;;;0.50;0.50;;;22.50;47.70;;;;;;5096552;28;20262;-67
2021/12/01 10:58:39;;;;;;;0.63;0.55;;;22.40;47.00;;;;;;5096404;28;20168;-67
2021/12/01 11:01:19;;;;;;;0.98;0.73;;;22.40;47.00;;;;;;5096341;28;20203;-67
2021/12/01 11:03:45;;;;;;;0.63;0.60;;;22.50;47.10;;;;;;5061674;28;20176;-67
2021/12/01 11:06:21;;;;;;;0.60;0.60;;;22.40;47.00;;;;;;5108849;28;20208;-67
2021/12/01 11:08:58;;;;;;;0.40;0.40;;;22.40;47.00;;;;;;5093785;28;20181;-67
2021/12/01 11:11:35;;;;;;;0.50;0.50;;;22.40;47.00;;;;;;5092699;28;20215;-68
2021/12/01 11:14:16;;;;;;;0.50;0.50;;;22.40;47.00;;;;;;5092586;28;20185;-67
2021/12/01 11:16:44;;;;;;;0.85;0.60;;;22.40;47.00;;;;;;5081409;28;20710;-67
2021/12/01 11:19:11;;;;;;;0.40;0.40;;;22.40;47.00;;;;;;5099386;28;20245;-66
2021/12/01 11:21:39;;;;;;;0.60;0.60;;;22.40;47.10;;;;;;5093747;28;20193;-66
2021/12/01 11:24:12;;;;;;;0.73;0.50;;;22.40;47.10;;;;;;5086727;28;20216;-66
2021/12/01 11:26:44;;;;;;;0.50;0.50;;;22.40;47.10;;;;;;5092662;28;20214;-66
2021/12/01 11:29:15;;;;;;;0.68;0.57;;;22.40;47.20;;;;;;5092058;28;20666;-66
2021/12/01 11:31:45;;;;;;;1.08;0.60;;;22.40;47.20;;;;;;5092196;28;20208;-66
2021/12/01 11:34:15;;;;;;;1.55;0.50;;;22.40;47.80;;;;;;5092400;28;20191;-66
2021/12/01 11:36:48;;;;;;;0.60;0.50;;;22.40;47.20;;;;;;5093865;28;20200;-66
2021/12/01 11:39:25;;;;;;;0.50;0.50;;;22.40;47.20;;;;;;5108805;28;20177;-67
2021/12/01 11:41:53;;;;;;;0.45;0.45;;;22.40;47.20;;;;;;5091583;28;20188;-66
2021/12/01 11:44:20;;;;;;;0.50;0.50;;;22.40;47.20;;;;;;5074890;28;20181;-66
2021/12/01 11:46:50;;;;;;;0.50;0.50;;;22.40;47.20;;;;;;5088065;28;20197;-66
2021/12/01 11:49:18;;;;;;;0.50;0.50;;;22.40;47.20;;;;;;5074899;28;20185;-66
2021/12/01 11:51:53;;;;;;;0.60;0.60;;;22.40;47.20;;;;;;5074835;28;20208;-67
2021/12/01 11:54:21;;;;;;;1.60;0.50;;;22.40;47.20;;;;;;5075143;28;20675;-66
2021/12/01 11:57:14;;;;;;;0.55;0.50;;;22.40;47.20;;;;;;5074802;28;20312;-66
2021/12/01 11:59:49;;;;;;;0.38;0.38;;;22.40;47.20;;;;;;5089149;28;20668;-66
2021/12/01 12:02:15;;;;;;;0.80;0.60;;;22.40;47.30;;;;;;5091683;28;20571;-66
2021/12/01 12:04:50;;;;;;;1.20;0.50;;;22.40;47.30;;;;;;5058387;28;20188;-69
2021/12/01 12:07:26;;;;;;;0.50;0.50;;;22.40;47.30;;;;;;5074585;28;20246;-65
2021/12/01 12:10:17;;;;;;;0.57;0.57;;;22.40;47.30;;;;;;5074725;28;20188;-66
2021/12/01 12:13:05;;;;;;;0.52;0.52;;;22.40;47.30;;;;;;5054709;28;20217;-66
2021/12/01 12:15:47;;;;;;;1.38;0.40;;;22.40;47.30;;;;;;5054534;28;20212;-66
2021/12/01 12:18:33;;;;;;;0.73;0.73;;;22.40;47.30;;;;;;5071259;28;20161;-66
2021/12/01 12:21:15;;;;;;;0.77;0.70;;;22.40;47.40;;;;;;5054528;28;20185;-66
2021/12/01 12:23:45;;;;;;;0.68;0.60;;;22.40;47.30;;;;;;5054745;28;20190;-66
2021/12/01 12:26:11;;;;;;;2.58;0.80;;;22.40;47.30;;;;;;5069647;28;20216;-66
2021/12/01 12:28:41;;;;;;;1.30;0.60;;;22.40;47.30;;;;;;5092279;28;20203;-66
2021/12/01 12:31:27;;;;;;;1.40;0.80;;;22.40;47.30;;;;;;5092547;28;20173;-67
2021/12/01 12:34:03;;;;;;;1.00;0.65;;;22.40;47.30;;;;;;5070874;28;20292;-66
2021/12/01 12:36:40;;;;;;;0.68;0.50;;;22.40;47.40;;;;;;5092040;28;20279;-66
2021/12/01 12:39:11;;;;;;;0.70;0.65;;;22.40;47.40;;;;;;5085213;28;20172;-66
2021/12/01 12:41:54;;;;;;;1.42;0.70;;;22.40;47.40;;;;;;5092496;28;20172;-66
2021/12/01 12:44:51;;;;;;;0.80;0.70;;;22.40;47.40;;;;;;5092833;28;20187;-66
2021/12/01 12:47:22;;;;;;;1.02;0.80;;;22.40;47.40;;;;;;5063588;28;20201;-66
2021/12/01 12:50:02;;;;;;;1.08;0.63;;;22.40;47.40;;;;;;5091034;28;20177;-65
2021/12/01 12:52:36;;;;;;;0.70;0.70;;;22.40;47.40;;;;;;5084746;28;20227;-67
2021/12/01 12:55:09;;;;;;;1.17;0.85;;;22.40;47.40;;;;;;5074054;28;20180;-66
2021/12/01 12:57:59;;;;;;;0.68;0.68;;;22.40;47.40;;;;;;5074296;28;20201;-66
2021/12/01 13:00:53;;;;;;;1.63;0.98;;;22.40;47.50;;;;;;5074282;28;20279;-66
2021/12/01 13:03:26;;;;;;;0.80;0.80;;;22.40;47.40;;;;;;5073766;28;20207;-66
2021/12/01 13:06:02;;;;;;;2.67;0.95;;;22.40;47.50;;;;;;5104480;28;20196;-66